Otis Orchards, WA (99027)

3:06 PM PST on November 20, 2017 (GMT -0800)
Trailhead Golf Course | | Change Station

Elev 2073 ft 47.67 °N, 117.10 °W | Updated 8 seconds ago

Overcast
Overcast
48.9 °F
Feels Like 45 °F
N
8.9
Wind Variable Wind from SE
Gusts 23.0 mph

Today
High -- | Low -- °F
--% Chance of Precip.
Yesterday
High -- | Low -- °F
Precip. -- in
Pressure 29.69 in
Visibility 10.0 miles
Clouds Scattered Clouds 2100 ft
Mostly Cloudy 2600 ft
Overcast 3100 ft
Windchill 45 °F
Dew Point 45 °F
Humidity 87%
Rainfall 0.32 in
Snow Depth Not available.
7:01 AM 4:06 PM
Waxing Crescent, 6% visible
METAR KSFF 202253Z 23011KT 10SM -RA SCT021 BKN026 OVC031 09/07 A2968 RMK AO2 RAB20 SLP052 P0000 T00940072
Pressure 29.69 in
Visibility 10.0 miles
Clouds Scattered Clouds 2100 ft
Mostly Cloudy 2600 ft
Overcast 3100 ft
Windchill 45 °F
Dew Point 45 °F
Humidity 87%
Rainfall 0.32 in
Snow Depth Not available.
7:01 AM 4:06 PM
Waxing Crescent, 6% visible
METAR KSFF 202253Z 23011KT 10SM -RA SCT021 BKN026 OVC031 09/07 A2968 RMK AO2 RAB20 SLP052 P0000 T00940072

Get Severe Weather Alerts

Thanks for signing up!

Be on the lookout for a verification email in your inbox.

You'll start receiving the daily forecast at 6 AM.

×

10-Day Weather Forecast

Almanac

Astronomy

Nov. 20, 2017 Rise Set
Actual Time
Civil Twilight
Nautical Twilight
Astronomical Twilight
Moon
Length of Visible Light
Length of Day
Tomorrow will be .
, % of the Moon is Illuminated

Today's Extremes

State Highs State Lows

Community

WunderPhotos

Category 6

Welcome to Category 6. This is the collective home for Weather Underground's featured writeups by Dr. Jeff Masters (right), Bob Henson (left), Chris Burt, and other regular contributors.

Nearby

Air Quality

  Air Quality AQ Index Pollutant
Not available.

Snow Depth

Station Depth Elevation

Earthquake Activity

City Distance Mag. Time & Date
Minimum magnitude displayed is 2.5.

Coastal Water Temperatures

Place Temperature

Stations

Nearby Weather Stations

Station Location Temp. Windchill Dew Point Humidity Wind Precip. Elev Updated Type
                   

Watches & Warnings

There are currently no watches in effect.